Weather at Rovaniemi Airport

Public forecast

Using degrees Celsius for public forecast. Weather courtesy of forecast.io.

Current aviation weather report (METAR) for Rovaniemi Airport

Retrieved 2022/08/11 17:20 UTC (15 minutes ago):

EFRO 111720Z AUTO 25013G23KT 220V290 CAVOK 16/05 Q1008

Aviation forecast (TAF) for Rovaniemi Airport

Retrieved 2022/08/11 15:42 UTC (2 hours ago):

TAF EFRO 111421Z 1115/1215 26015G25KT CAVOK BECMG 1115/1117 26012KT